Pagrindinis puslapis
METAR-TAF:

METAR-TAF

Oro uostai :

Newquay Cornwall, Anglija

platuma: 50-26N, ilguma: 005-00W, Aukštis: 119 m

Dabartinis oras

Ataskaita buvo paskelbta 40 minutes, ne 12:50 UTC
Vėjas 20 kt iš Pietvakarių
Temperatūra 11°C
Drėgmė 76%
Slėgis 1020 hPa
Matomumas 10 km arba daugiau
Išsisklaidę debesys ne aukštis 1600 ft
Su prošvaistėmis ne aukštis 3000 ft

METAR: EGHQ 191250Z 23020KT 9999 SCT016 BKN030 11/07 Q1020

Laikas: 13:30 (13:30 UTC)

Prognozė

Ataskaita buvo paskelbta 2 valandos ir 30 minutes, ne 11:00 UTC
Prognozė galioja nuo 19 metu 12 UTC su 19 metu 21 UTC
Vėjas 13 kt iš Pietvakarių
Matomumas 10 km arba daugiau
Su prošvaistėmis ne aukštis 3000 ft
Laikinai
nuo 19 metu 12 UTC su 19 metu 21 UTC
Vėjas 20 kt iš Pietvakarių su gūsio iki 30 kt
Tikimybė 30% :
Laikinai
nuo 19 metu 12 UTC su 19 metu 21 UTC
Matomumas: 9000 m
Su prošvaistėmis ne aukštis 1400 ft
lietus

TAF: EGHQ 191100Z 1912/1921 23013KT 9999 BKN030 TEMPO 1912/1921 23020G30KT PROB30 TEMPO 1912/1921 9000 -RA BKN014

Orai ataskaitas ir orų prognozės (METAR, TAF).

turimą stotys yra geltonos ir raudonos taškus žemėlapyje.

Perkelti pele per norėdami pamatyti stoties vardą.

Tada spustelėkite, norėdami matyti oro stebėjimo ir prognozės.

Norėdami pakeisti žemėlapį: spustelėkite ant žalios mygtukų su juodo kryžiaus žemyn,; žalią mygtuką su brūkšneliu, jei norite nutolinti; arba žalių rodyklių gretimoms žemėlapius.


METAR-TAF: